Tidd Dale, Ohio
Current Conditions -  °F | °C
As of 1:53 PM on Thursday 18 Dec 2014 (Local Time) from KHLG Reporting Station
Overcast Overcast  
Wind Chill: 22°   Ceiling: 1600
Heat Index: 28°   Visibility: 10mi
Dew Point: 20°   Wind: 6mph
Humidity: 72%   Direction: NA
Pressure: 30.16"   Gusts: NA
Location:  40.2717°N, 80.6513°W
Report Text: KHLG 181853Z VRB05KT 10SM OVC016 M02/M07 A3016 RMK AO2 SLP230 T10221067
Loading
Personal Weather Stations






























Interactive Weather Map New forecast layout! Learn more

10-Day Weather Forecast

Advertisements
Track Severe Weather on mobile